createdAt,value
2019-05-28T00:00:22.896Z,36.74
2019-05-28T00:01:21.971Z,37.22
2019-05-28T00:02:21.954Z,36.90
2019-05-28T00:03:22.009Z,37.06
2019-05-28T00:04:21.989Z,37.06
2019-05-28T00:05:21.911Z,37.22
2019-05-28T00:06:21.838Z,37.06
2019-05-28T00:07:21.923Z,36.58
2019-05-28T00:08:21.910Z,36.90
2019-05-28T00:09:21.850Z,37.22
2019-05-28T00:10:21.888Z,37.06
2019-05-28T00:11:21.880Z,37.06
2019-05-28T00:12:21.877Z,37.06
2019-05-28T00:13:21.888Z,36.90
2019-05-28T00:14:21.860Z,37.06
2019-05-28T00:15:21.854Z,37.06
2019-05-28T00:16:21.844Z,37.22
2019-05-28T00:17:21.854Z,36.90
2019-05-28T00:18:21.847Z,37.22
2019-05-28T00:19:21.758Z,37.06
2019-05-28T00:20:21.818Z,37.06
2019-05-28T00:21:21.823Z,37.06
2019-05-28T00:22:21.772Z,37.22
2019-05-28T00:23:21.808Z,37.06
2019-05-28T00:24:21.826Z,37.22
2019-05-28T00:25:25.068Z,37.06
2019-05-28T00:26:22.776Z,37.22
2019-05-28T00:27:21.787Z,36.42
2019-05-28T00:28:21.741Z,36.90
2019-05-28T00:29:21.693Z,37.06
2019-05-28T00:30:21.669Z,36.90
2019-05-28T00:31:21.742Z,37.06
2019-05-28T00:32:21.746Z,36.90
2019-05-28T00:33:21.725Z,37.06
2019-05-28T00:34:21.760Z,37.22
2019-05-28T00:35:21.733Z,37.22
2019-05-28T00:36:21.660Z,37.38
2019-05-28T00:37:21.699Z,37.38
2019-05-28T00:38:21.683Z,37.06
2019-05-28T00:39:21.714Z,37.38
2019-05-28T00:40:21.681Z,37.22
2019-05-28T00:41:21.680Z,37.22
2019-05-28T00:42:21.638Z,37.38
2019-05-28T00:43:27.768Z,37.54
2019-05-28T00:44:21.605Z,37.06
2019-05-28T00:45:21.618Z,37.22
2019-05-28T00:46:21.641Z,37.38
2019-05-28T00:47:21.617Z,37.22
2019-05-28T00:48:21.529Z,37.22
2019-05-28T00:49:21.630Z,37.38
2019-05-28T00:50:21.547Z,37.38
2019-05-28T00:51:21.515Z,37.22
2019-05-28T00:52:21.569Z,37.38
2019-05-28T00:53:21.503Z,37.22
2019-05-28T00:54:21.599Z,37.06
2019-05-28T00:55:21.555Z,36.90
2019-05-28T00:56:21.469Z,36.58
2019-05-28T00:57:21.534Z,36.90
2019-05-28T00:58:21.543Z,36.74
2019-05-28T00:59:21.543Z,36.90
2019-05-28T01:00:36.146Z,36.90
2019-05-28T01:01:22.463Z,36.58
2019-05-28T01:02:21.512Z,36.58
2019-05-28T01:03:21.494Z,36.90
2019-05-28T01:04:21.541Z,36.90
2019-05-28T01:05:21.522Z,36.58
2019-05-28T01:06:21.485Z,36.90
2019-05-28T01:07:21.391Z,36.74
2019-05-28T01:08:21.533Z,36.58
2019-05-28T01:09:21.457Z,36.74
2019-05-28T01:10:21.390Z,37.06
2019-05-28T01:11:21.443Z,36.74
2019-05-28T01:12:21.436Z,36.74
2019-05-28T01:13:21.437Z,36.74
2019-05-28T01:14:21.340Z,36.74
2019-05-28T01:15:21.382Z,36.42
2019-05-28T01:16:21.431Z,36.74
2019-05-28T01:17:21.436Z,36.74
2019-05-28T01:18:21.419Z,36.90
2019-05-28T01:19:21.422Z,36.74
2019-05-28T01:20:21.389Z,36.74
2019-05-28T01:21:21.403Z,36.74
2019-05-28T01:22:21.307Z,36.74
2019-05-28T01:23:21.296Z,36.74
2019-05-28T01:24:21.364Z,36.90
2019-05-28T01:25:21.324Z,36.90
2019-05-28T01:26:21.358Z,36.58
2019-05-28T01:27:21.322Z,36.58
2019-05-28T01:28:21.258Z,36.74
2019-05-28T01:29:21.267Z,36.90
2019-05-28T01:30:21.266Z,36.90
2019-05-28T01:31:21.384Z,36.90
2019-05-28T01:32:21.239Z,36.74
2019-05-28T01:33:21.313Z,37.06
2019-05-28T01:34:21.256Z,36.90
2019-05-28T01:35:21.332Z,37.06
2019-05-28T01:36:21.288Z,36.90
2019-05-28T01:37:21.212Z,36.58
2019-05-28T01:38:21.289Z,37.06
2019-05-28T01:39:21.277Z,36.58
2019-05-28T01:40:23.351Z,37.06
2019-05-28T01:41:21.245Z,37.06
2019-05-28T01:42:21.240Z,36.74
2019-05-28T01:43:21.245Z,36.74
2019-05-28T01:44:21.245Z,36.74
2019-05-28T01:45:21.230Z,37.06
2019-05-28T01:46:21.209Z,36.90
2019-05-28T01:47:21.208Z,36.74
2019-05-28T01:48:21.136Z,36.58
2019-05-28T01:49:21.185Z,36.90
2019-05-28T01:50:21.250Z,36.90
2019-05-28T01:51:21.164Z,37.06
2019-05-28T01:52:21.183Z,37.06
2019-05-28T01:53:21.118Z,36.90
2019-05-28T01:54:21.213Z,36.90
2019-05-28T01:55:21.199Z,37.06
2019-05-28T01:56:21.136Z,37.06
2019-05-28T01:57:21.137Z,36.90
2019-05-28T01:58:21.143Z,37.06
2019-05-28T01:59:21.121Z,36.90
2019-05-28T02:00:21.152Z,36.25
2019-05-28T02:01:21.106Z,36.74
2019-05-28T02:02:21.100Z,36.74
2019-05-28T02:03:20.992Z,36.74
2019-05-28T02:04:21.075Z,36.74
2019-05-28T02:05:21.003Z,36.90
2019-05-28T02:06:21.102Z,36.74
2019-05-28T02:07:21.031Z,37.06
2019-05-28T02:08:21.036Z,36.90
2019-05-28T02:09:20.963Z,36.74
2019-05-28T02:10:21.036Z,36.90
2019-05-28T02:11:21.026Z,37.06
2019-05-28T02:12:20.924Z,37.06
2019-05-28T02:13:21.049Z,36.90
2019-05-28T02:14:20.996Z,37.06
2019-05-28T02:15:20.961Z,37.06
2019-05-28T02:16:20.915Z,37.22
2019-05-28T02:17:20.979Z,36.42
2019-05-28T02:18:20.975Z,37.06
2019-05-28T02:19:20.964Z,37.06
2019-05-28T02:20:20.963Z,37.06
2019-05-28T02:21:20.906Z,37.06
2019-05-28T02:22:20.943Z,37.06
2019-05-28T02:23:20.890Z,36.90
2019-05-28T02:24:20.936Z,37.06
2019-05-28T02:25:20.923Z,37.06
2019-05-28T02:26:20.908Z,37.06
2019-05-28T02:27:20.845Z,37.38
2019-05-28T02:28:20.867Z,37.06
2019-05-28T02:29:20.800Z,36.42
2019-05-28T02:30:20.818Z,37.06
2019-05-28T02:31:27.868Z,37.06
2019-05-28T02:32:21.805Z,36.90
2019-05-28T02:33:26.992Z,36.58
2019-05-28T02:34:20.765Z,37.06
2019-05-28T02:35:20.880Z,37.06
2019-05-28T02:36:20.922Z,36.90
2019-05-28T02:37:20.872Z,36.90
2019-05-28T02:38:20.817Z,37.06
2019-05-28T02:39:20.833Z,36.90
2019-05-28T02:40:20.886Z,37.06
2019-05-28T02:41:20.869Z,36.74
2019-05-28T02:42:20.841Z,37.06
2019-05-28T02:43:20.831Z,36.74
2019-05-28T02:44:20.875Z,37.06
2019-05-28T02:45:20.733Z,37.22
2019-05-28T02:46:20.838Z,36.42
2019-05-28T02:47:20.798Z,37.22
2019-05-28T02:48:20.759Z,36.74
2019-05-28T02:49:20.778Z,37.06
2019-05-28T02:50:20.773Z,36.74
2019-05-28T02:51:20.734Z,36.90
2019-05-28T02:52:20.734Z,37.22
2019-05-28T02:53:20.798Z,37.06
2019-05-28T02:54:20.784Z,37.06
2019-05-28T02:55:20.699Z,37.22
2019-05-28T02:56:20.681Z,36.90
2019-05-28T02:57:20.785Z,37.06
2019-05-28T02:58:20.757Z,36.74
2019-05-28T02:59:20.720Z,36.90
2019-05-28T14:47:49.273Z,46.89
2019-05-28T14:50:22.922Z,48.50
2019-05-28T14:51:22.917Z,53.01
2019-05-28T14:52:22.913Z,46.41
2019-05-28T14:53:22.899Z,51.88
2019-05-28T14:54:22.894Z,49.15
2019-05-28T14:55:23.113Z,47.37
2019-05-28T14:56:23.069Z,51.56
2019-05-28T14:57:22.993Z,47.37
2019-05-28T14:58:23.157Z,45.60
2019-05-28T14:59:23.053Z,49.63
2019-05-28T15:00:23.086Z,41.09
2019-05-28T15:01:23.044Z,39.80
2019-05-28T15:02:23.049Z,41.25
2019-05-28T15:03:23.051Z,38.19
2019-05-28T15:04:23.030Z,38.35
2019-05-28T15:05:23.016Z,45.60
2019-05-28T15:06:23.049Z,46.41
2019-05-28T15:07:22.919Z,46.25
2019-05-28T15:08:23.007Z,38.35
2019-05-28T15:09:23.005Z,37.54
2019-05-28T15:10:22.895Z,38.51
2019-05-28T15:11:23.006Z,37.71
2019-05-28T15:12:22.937Z,37.71
2019-05-28T15:13:22.889Z,37.38
2019-05-28T15:14:22.875Z,37.54
2019-05-28T15:15:35.474Z,37.22
2019-05-28T15:16:23.976Z,36.58
2019-05-28T15:17:26.486Z,37.38
2019-05-28T15:18:22.910Z,37.38
2019-05-28T15:19:22.906Z,37.87
2019-05-28T15:20:22.911Z,38.03
2019-05-28T15:21:22.907Z,38.03
2019-05-28T15:22:22.878Z,38.99
2019-05-28T15:23:22.883Z,38.99
2019-05-28T15:24:22.868Z,37.87
2019-05-28T15:25:22.864Z,38.03
2019-05-28T15:26:22.805Z,38.67
2019-05-28T15:27:22.846Z,38.03
2019-05-28T15:28:22.741Z,37.54
2019-05-28T15:29:22.829Z,38.03
2019-05-28T15:30:22.830Z,37.71
2019-05-28T15:31:22.886Z,37.54
2019-05-28T15:32:22.872Z,38.03
2019-05-28T15:33:22.782Z,37.71
2019-05-28T15:34:22.792Z,37.71
2019-05-28T15:35:22.792Z,37.71
2019-05-28T15:36:22.746Z,38.03
2019-05-28T15:37:22.804Z,37.22
2019-05-28T15:38:22.767Z,37.87
2019-05-28T15:39:38.505Z,38.03
2019-05-28T15:40:23.562Z,37.71
2019-05-28T15:41:22.722Z,37.54
2019-05-28T15:42:22.705Z,37.87
2019-05-28T15:43:22.629Z,38.03
2019-05-28T15:44:22.639Z,37.87
2019-05-28T15:45:22.720Z,37.54
2019-05-28T15:46:22.720Z,37.22
2019-05-28T15:47:22.715Z,37.87
2019-05-28T15:48:22.687Z,38.03
2019-05-28T15:49:22.683Z,38.03
2019-05-28T15:50:22.646Z,37.87
2019-05-28T15:51:22.796Z,37.22
2019-05-28T15:52:22.695Z,37.87
2019-05-28T15:53:22.594Z,37.54
2019-05-28T15:54:22.662Z,37.87
2019-05-28T15:55:22.645Z,37.71
2019-05-28T15:56:22.597Z,37.87
2019-05-28T15:57:22.676Z,37.87
2019-05-28T15:58:22.685Z,37.22
2019-05-28T15:59:22.662Z,38.03
2019-05-28T16:00:22.645Z,37.87
2019-05-28T16:01:22.521Z,37.54
2019-05-28T16:02:22.551Z,37.87
2019-05-28T16:03:22.609Z,38.03
2019-05-28T16:04:22.523Z,38.19
2019-05-28T16:05:22.579Z,38.03
2019-05-28T16:06:22.545Z,38.03
2019-05-28T16:07:22.558Z,37.71
2019-05-28T16:08:22.475Z,37.71
2019-05-28T16:09:22.537Z,37.87
2019-05-28T16:10:22.569Z,37.71
2019-05-28T16:11:22.543Z,37.87
2019-05-28T16:12:22.512Z,37.38
2019-05-28T16:13:22.456Z,38.03
2019-05-28T16:14:22.518Z,38.03
2019-05-28T16:15:22.509Z,37.87
2019-05-28T16:16:22.496Z,37.87
2019-05-28T16:17:22.418Z,37.54
2019-05-28T16:18:22.510Z,38.19
2019-05-28T16:19:22.374Z,37.71
2019-05-28T16:20:22.453Z,37.71
2019-05-28T16:21:22.456Z,37.06
2019-05-28T16:22:22.537Z,38.03
2019-05-28T16:23:22.440Z,37.87
2019-05-28T16:24:22.389Z,37.71
2019-05-28T16:25:22.416Z,37.54
2019-05-28T16:26:22.502Z,38.19
2019-05-28T16:27:22.482Z,37.71
2019-05-28T16:28:22.421Z,37.71
2019-05-28T16:29:22.563Z,37.71
2019-05-28T16:30:22.417Z,38.03
2019-05-28T16:31:22.401Z,37.71
2019-05-28T16:32:27.835Z,38.03
2019-05-28T16:33:23.290Z,37.87
2019-05-28T16:34:22.360Z,37.54
2019-05-28T16:35:22.389Z,37.71
2019-05-28T16:36:22.259Z,38.03
2019-05-28T16:37:22.363Z,38.03
2019-05-28T16:38:22.370Z,37.87
2019-05-28T16:39:22.345Z,37.71
2019-05-28T16:40:22.261Z,37.87
2019-05-28T16:41:22.333Z,37.71
2019-05-28T16:42:22.299Z,37.87
2019-05-28T16:43:22.326Z,37.54
2019-05-28T16:44:22.309Z,38.03
2019-05-28T16:45:22.247Z,37.71
2019-05-28T16:46:22.310Z,38.03
2019-05-28T16:47:22.277Z,38.03
2019-05-28T16:48:22.316Z,37.71
2019-05-28T16:49:22.258Z,37.71
2019-05-28T16:50:22.256Z,38.03
2019-05-28T16:51:22.173Z,37.71
2019-05-28T16:52:22.263Z,37.87
2019-05-28T16:53:22.317Z,37.87
2019-05-28T16:54:22.222Z,37.87
2019-05-28T16:55:22.228Z,37.87
2019-05-28T16:56:22.247Z,38.19
2019-05-28T16:57:22.143Z,37.87
2019-05-28T16:58:22.244Z,38.03
2019-05-28T16:59:22.151Z,37.71
2019-05-28T17:00:22.206Z,38.19
2019-05-28T17:01:23.231Z,37.87
2019-05-28T17:02:22.103Z,38.19
2019-05-28T17:03:22.131Z,37.71
2019-05-28T17:04:22.158Z,37.54
2019-05-28T17:05:22.187Z,37.54
2019-05-28T17:06:22.080Z,37.54
2019-05-28T17:07:22.143Z,38.03
2019-05-28T17:08:22.222Z,38.03
2019-05-28T17:09:22.164Z,37.87
2019-05-28T17:10:32.493Z,37.22
2019-05-28T17:11:27.353Z,37.38
2019-05-28T17:12:23.051Z,37.54
2019-05-28T17:13:22.150Z,37.22
2019-05-28T17:14:26.755Z,37.54
2019-05-28T17:15:23.126Z,37.54
2019-05-28T17:16:22.096Z,37.38
2019-05-28T17:17:22.093Z,38.19
2019-05-28T17:18:22.025Z,37.87
2019-05-28T17:19:22.096Z,37.71
2019-05-28T17:20:22.068Z,38.03
2019-05-28T17:21:23.191Z,37.54
2019-05-28T17:22:22.050Z,37.54
2019-05-28T17:23:22.075Z,37.71
2019-05-28T17:24:22.050Z,37.54
2019-05-28T17:25:22.046Z,37.87
2019-05-28T17:26:22.046Z,37.54
2019-05-28T17:27:22.040Z,37.71
2019-05-28T17:28:22.030Z,37.54
2019-05-28T17:29:22.050Z,37.54
2019-05-28T17:30:24.187Z,36.74
2019-05-28T17:31:22.068Z,37.38
2019-05-28T17:32:21.962Z,37.54
2019-05-28T17:33:21.913Z,37.87
2019-05-28T17:34:21.935Z,37.87
2019-05-28T17:35:22.003Z,37.71
2019-05-28T17:36:21.964Z,37.54
2019-05-28T17:37:21.960Z,37.54
2019-05-28T17:38:21.935Z,37.54
2019-05-28T17:39:21.857Z,37.38
2019-05-28T17:40:22.371Z,37.38
2019-05-28T17:41:21.915Z,37.54
2019-05-28T17:42:21.920Z,38.03
2019-05-28T17:43:21.921Z,37.54
2019-05-28T17:44:21.926Z,37.87
2019-05-28T17:45:21.981Z,37.54
2019-05-28T17:46:21.787Z,37.38
2019-05-28T17:47:21.854Z,37.87
2019-05-28T17:48:21.881Z,37.71
2019-05-28T17:49:21.889Z,37.54
2019-05-28T17:50:21.845Z,37.54
2019-05-28T17:51:21.737Z,37.22
2019-05-28T17:52:21.770Z,37.71
2019-05-28T17:53:21.839Z,37.22
2019-05-28T17:54:21.902Z,37.71
2019-05-28T17:55:22.112Z,37.22
2019-05-28T17:56:21.772Z,37.22
2019-05-28T17:57:21.807Z,37.22
2019-05-28T17:58:21.782Z,37.22
2019-05-28T17:59:21.799Z,37.54
2019-05-28T18:00:21.774Z,37.22
2019-05-28T18:01:21.751Z,36.90
2019-05-28T18:02:21.799Z,37.38
2019-05-28T18:03:21.676Z,37.38
2019-05-28T18:04:21.756Z,37.71
2019-05-28T18:05:21.670Z,37.38
2019-05-28T18:06:21.710Z,37.54
2019-05-28T18:07:21.687Z,37.54
2019-05-28T18:08:21.712Z,37.54
2019-05-28T18:09:21.665Z,37.06
2019-05-28T18:10:21.695Z,37.54
2019-05-28T18:11:21.662Z,37.22
2019-05-28T18:12:21.611Z,37.54
2019-05-28T18:13:21.713Z,37.54
2019-05-28T18:14:23.789Z,37.71
2019-05-28T18:15:21.569Z,37.54
2019-05-28T18:16:21.661Z,37.71
2019-05-28T18:17:21.696Z,37.87
2019-05-28T18:18:21.633Z,37.22
2019-05-28T18:19:21.655Z,37.54
2019-05-28T18:20:21.625Z,37.38
2019-05-28T18:21:21.625Z,37.38
2019-05-28T18:22:21.656Z,37.54
2019-05-28T18:23:21.618Z,37.87
2019-05-28T18:24:21.574Z,37.71
2019-05-28T18:25:21.758Z,37.54
2019-05-28T18:26:21.580Z,37.71
2019-05-28T18:27:21.635Z,37.71
2019-05-28T18:28:21.603Z,37.71
2019-05-28T18:29:21.584Z,37.71
2019-05-28T18:30:21.572Z,37.54
2019-05-28T18:31:21.558Z,37.71
2019-05-28T18:32:21.506Z,37.87
2019-05-28T18:33:21.464Z,37.38
2019-05-28T18:34:21.557Z,37.71
2019-05-28T18:35:21.552Z,37.71
2019-05-28T18:36:21.483Z,37.22
2019-05-28T18:37:21.507Z,37.87
2019-05-28T18:38:21.514Z,38.03
2019-05-28T18:39:25.306Z,37.71
2019-05-28T18:40:21.537Z,36.90
2019-05-28T18:41:22.217Z,37.87
2019-05-28T18:42:21.494Z,37.22
2019-05-28T18:43:21.397Z,38.03
2019-05-28T18:44:21.299Z,37.54
2019-05-28T18:45:21.592Z,37.87
2019-05-28T18:46:21.459Z,37.71
2019-05-28T18:47:21.446Z,37.54
2019-05-28T18:48:21.448Z,37.22
2019-05-28T18:49:21.432Z,37.06
2019-05-28T18:50:21.469Z,37.54
2019-05-28T18:51:21.439Z,37.54
2019-05-28T18:52:21.419Z,37.71
2019-05-28T18:53:21.422Z,37.54
2019-05-28T18:54:21.336Z,38.03
2019-05-28T18:55:23.530Z,37.54
2019-05-28T18:56:21.405Z,37.38
2019-05-28T18:57:21.309Z,37.22
2019-05-28T18:58:21.536Z,37.54
2019-05-28T18:59:21.464Z,37.87
2019-05-28T19:00:21.404Z,37.71
2019-05-28T19:01:21.359Z,37.54
2019-05-28T19:02:21.311Z,37.38
2019-05-28T19:03:21.361Z,37.54
2019-05-28T19:04:21.288Z,37.06
2019-05-28T19:05:21.298Z,37.54
2019-05-28T19:06:21.353Z,37.22
2019-05-28T19:07:21.370Z,37.87
2019-05-28T19:08:21.257Z,37.22
2019-05-28T19:09:21.311Z,37.87
2019-05-28T19:10:21.330Z,37.06
2019-05-28T19:11:34.898Z,37.87
2019-05-28T19:12:22.287Z,37.54
2019-05-28T19:13:21.279Z,37.38
2019-05-28T19:14:21.270Z,37.38
2019-05-28T19:15:21.282Z,37.87
2019-05-28T19:16:21.236Z,37.38
2019-05-28T19:17:21.251Z,37.06
2019-05-28T19:18:21.158Z,37.54
2019-05-28T19:19:21.231Z,37.38
2019-05-28T19:20:21.241Z,37.38
2019-05-28T19:21:21.245Z,37.38
2019-05-28T19:22:21.240Z,37.38
2019-05-28T19:23:21.235Z,37.54
2019-05-28T19:24:21.228Z,37.71
2019-05-28T19:25:21.237Z,37.38
2019-05-28T19:26:21.151Z,37.38
2019-05-28T19:27:21.202Z,37.71
2019-05-28T19:28:21.189Z,37.38
2019-05-28T19:29:21.194Z,37.54
2019-05-28T19:30:21.227Z,37.38
2019-05-28T19:31:21.230Z,37.54
2019-05-28T19:32:21.163Z,37.54
2019-05-28T19:33:21.170Z,37.71
2019-05-28T19:34:21.123Z,37.54
2019-05-28T19:35:21.085Z,37.22
2019-05-28T19:36:21.188Z,37.06
2019-05-28T19:37:21.118Z,36.90
2019-05-28T19:38:21.208Z,36.90
2019-05-28T19:39:22.070Z,37.22
2019-05-28T19:40:21.148Z,37.06
2019-05-28T19:41:21.172Z,37.22
2019-05-28T19:42:21.050Z,37.38
2019-05-28T19:43:21.126Z,36.90
2019-05-28T19:44:21.106Z,37.06
2019-05-28T19:45:21.130Z,37.22
2019-05-28T19:46:21.086Z,37.22
2019-05-28T19:47:21.104Z,36.58
2019-05-28T19:48:21.070Z,36.90
2019-05-28T19:49:21.016Z,37.06
2019-05-28T19:50:21.098Z,36.90
2019-05-28T19:51:21.016Z,37.38
2019-05-28T19:52:21.074Z,37.06
2019-05-28T19:53:21.032Z,36.90
2019-05-28T19:54:20.976Z,37.06
2019-05-28T19:55:21.080Z,37.22
2019-05-28T19:56:20.989Z,36.74
2019-05-28T19:57:21.042Z,37.22
2019-05-28T19:58:21.048Z,37.06
2019-05-28T19:59:21.033Z,36.90
2019-05-28T20:00:21.021Z,37.06
2019-05-28T20:01:21.004Z,37.54
2019-05-28T20:02:21.011Z,36.74
2019-05-28T20:03:21.009Z,36.74
2019-05-28T20:04:20.925Z,37.54
2019-05-28T20:05:20.980Z,36.74
2019-05-28T20:06:20.926Z,37.22
2019-05-28T20:07:20.968Z,37.22
2019-05-28T20:08:20.953Z,36.58
2019-05-28T20:09:20.955Z,37.22
2019-05-28T20:10:20.906Z,37.06
2019-05-28T20:11:20.963Z,37.06
2019-05-28T20:12:20.924Z,37.06
2019-05-28T20:13:20.827Z,37.22
2019-05-28T20:14:20.835Z,37.22
2019-05-28T20:15:22.904Z,36.90
2019-05-28T20:16:20.947Z,36.90
2019-05-28T20:17:20.913Z,36.74
2019-05-28T20:18:26.832Z,37.06
2019-05-28T20:19:21.905Z,36.90
2019-05-28T20:20:20.798Z,37.22
2019-05-28T20:21:20.895Z,37.22
2019-05-28T20:22:20.868Z,36.74
2019-05-28T20:23:20.852Z,36.74
2019-05-28T20:24:20.810Z,36.90
2019-05-28T20:25:20.748Z,37.06
2019-05-28T20:26:20.840Z,36.90
2019-05-28T20:27:20.765Z,37.06
2019-05-28T20:28:20.848Z,36.90
2019-05-28T20:29:21.809Z,36.90
2019-05-28T20:30:20.814Z,37.06
2019-05-28T20:31:20.789Z,37.06
2019-05-28T20:32:20.846Z,36.90
2019-05-28T20:33:20.800Z,36.74
2019-05-28T20:34:20.792Z,36.90
2019-05-28T20:35:20.768Z,36.90
2019-05-28T20:36:20.778Z,37.22
2019-05-28T20:37:20.774Z,37.22
2019-05-28T20:38:20.686Z,36.74
2019-05-28T20:39:20.676Z,37.22
2019-05-28T20:40:20.654Z,36.90
2019-05-28T20:41:20.738Z,36.90
2019-05-28T20:42:27.191Z,37.22
2019-05-28T20:43:21.706Z,37.22
2019-05-28T20:44:21.544Z,37.22
2019-05-28T20:45:20.696Z,36.58
2019-05-28T20:46:20.595Z,36.90
2019-05-28T20:47:20.765Z,37.38
2019-05-28T20:48:20.688Z,37.38
2019-05-28T20:49:20.666Z,37.22
2019-05-28T20:50:20.659Z,37.06
2019-05-28T20:51:22.098Z,37.38
2019-05-28T20:52:20.592Z,37.06
2019-05-28T20:53:35.197Z,36.90
2019-05-28T20:54:21.658Z,37.22
2019-05-28T20:55:20.631Z,37.22
2019-05-28T20:56:20.595Z,36.58
2019-05-28T20:57:20.611Z,36.90
2019-05-28T20:58:20.532Z,37.22
2019-05-28T20:59:20.622Z,36.58
2019-05-28T21:00:20.610Z,37.22
2019-05-28T21:01:20.604Z,36.90
2019-05-28T21:02:20.581Z,36.90
2019-05-28T21:03:20.620Z,36.90
2019-05-28T21:04:20.561Z,36.90
2019-05-28T21:05:20.583Z,37.38
2019-05-28T21:06:20.578Z,36.74
2019-05-28T21:07:20.567Z,37.06
2019-05-28T21:08:20.553Z,37.06
2019-05-28T21:09:20.554Z,37.06
2019-05-28T21:10:20.572Z,37.06
2019-05-28T21:11:20.436Z,36.74
2019-05-28T21:12:20.559Z,37.38
2019-05-28T21:13:20.527Z,36.90
2019-05-28T21:14:20.581Z,37.06
2019-05-28T21:15:20.504Z,36.90
2019-05-28T21:16:20.538Z,36.90
2019-05-28T21:17:20.509Z,37.06
2019-05-28T21:18:20.583Z,36.90
2019-05-28T21:19:20.521Z,37.22
2019-05-28T21:20:20.497Z,36.74
2019-05-28T21:21:20.417Z,37.06
2019-05-28T21:22:26.831Z,37.06
2019-05-28T21:23:21.442Z,37.06
2019-05-28T21:24:20.483Z,37.06
2019-05-28T21:25:20.480Z,36.90
2019-05-28T21:26:20.477Z,37.22
2019-05-28T21:27:20.477Z,37.06
2019-05-28T21:28:20.477Z,37.22
2019-05-28T21:29:20.440Z,37.06
2019-05-28T21:30:20.383Z,37.06
2019-05-28T21:31:20.409Z,36.90
2019-05-28T21:32:20.446Z,36.90
2019-05-28T21:33:20.441Z,36.90
2019-05-28T21:34:20.377Z,36.90
2019-05-28T21:35:20.317Z,36.90
2019-05-28T21:36:20.393Z,36.90
2019-05-28T21:37:20.408Z,37.22
2019-05-28T21:38:20.397Z,37.06
2019-05-28T21:39:20.333Z,37.06
2019-05-28T21:40:20.380Z,36.90
2019-05-28T21:41:20.421Z,37.06
2019-05-28T21:42:20.262Z,36.90
2019-05-28T21:43:20.379Z,37.22
2019-05-28T21:44:20.352Z,37.06
2019-05-28T21:45:20.233Z,37.22
2019-05-28T21:46:20.243Z,36.74
2019-05-28T21:47:20.321Z,36.90
2019-05-28T21:48:20.321Z,37.22
2019-05-28T21:49:23.508Z,37.06
2019-05-28T21:50:20.305Z,37.06
2019-05-28T21:51:20.271Z,37.06
2019-05-28T21:52:20.291Z,37.38
2019-05-28T21:53:20.310Z,37.06
2019-05-28T21:54:20.292Z,36.90
2019-05-28T21:55:20.190Z,37.06
2019-05-28T21:56:20.197Z,37.06
2019-05-28T21:57:20.258Z,37.38
2019-05-28T21:58:20.266Z,37.06
2019-05-28T21:59:20.243Z,37.22
2019-05-28T22:00:20.258Z,36.74
2019-05-28T22:01:20.228Z,37.06
2019-05-28T22:02:20.227Z,36.74
2019-05-28T22:03:20.149Z,37.38
2019-05-28T22:04:20.262Z,37.06
2019-05-28T22:05:20.209Z,36.58
2019-05-28T22:06:20.189Z,37.06
2019-05-28T22:07:20.105Z,37.06
2019-05-28T22:08:20.178Z,37.06
2019-05-28T22:09:20.105Z,36.90
2019-05-28T22:10:20.145Z,36.58
2019-05-28T22:11:20.159Z,37.06
2019-05-28T22:12:20.149Z,36.74
2019-05-28T22:13:22.610Z,37.06
2019-05-28T22:14:20.113Z,36.90
2019-05-28T22:15:20.148Z,37.06
2019-05-28T22:16:20.044Z,37.06
2019-05-28T22:17:20.124Z,36.90
2019-05-28T22:18:20.120Z,36.74
2019-05-28T22:19:20.089Z,37.06
2019-05-28T22:20:20.092Z,37.06
2019-05-28T22:21:20.082Z,36.42
2019-05-28T22:22:20.092Z,36.90
2019-05-28T22:23:20.010Z,36.74
2019-05-28T22:24:20.098Z,36.90
2019-05-28T22:25:20.053Z,36.90
2019-05-28T22:26:19.952Z,36.58
2019-05-28T22:27:20.112Z,36.25
2019-05-28T22:28:19.961Z,37.22
2019-05-28T22:29:20.034Z,36.74
2019-05-28T22:30:20.020Z,36.90
2019-05-28T22:31:20.028Z,36.58
2019-05-28T22:32:20.011Z,36.74
2019-05-28T22:33:19.987Z,36.90
2019-05-28T22:34:19.952Z,36.74
2019-05-28T22:35:19.990Z,35.77
2019-05-28T22:36:19.972Z,36.74
2019-05-28T22:37:19.962Z,36.74
2019-05-28T22:38:19.898Z,37.06
2019-05-28T22:39:19.968Z,37.06
2019-05-28T22:40:19.851Z,36.90
2019-05-28T22:41:19.936Z,36.74
2019-05-28T22:42:19.933Z,36.58
2019-05-28T22:43:31.163Z,36.90
2019-05-28T22:44:20.889Z,36.90
2019-05-28T22:45:19.914Z,37.06
2019-05-28T22:46:19.926Z,36.74
2019-05-28T22:47:19.902Z,36.58
2019-05-28T22:48:19.868Z,37.06
2019-05-28T22:49:19.708Z,36.42
2019-05-28T22:50:22.803Z,36.90
2019-05-28T22:51:19.789Z,36.58
2019-05-28T22:52:19.863Z,36.74
2019-05-28T22:53:19.847Z,36.90
2019-05-28T22:54:19.887Z,36.58
2019-05-28T22:55:19.744Z,36.90
2019-05-28T22:56:19.802Z,37.06
2019-05-28T22:57:19.814Z,36.90
2019-05-28T22:58:19.822Z,37.06
2019-05-28T22:59:20.631Z,37.06
2019-05-28T23:00:19.714Z,36.42
2019-05-28T23:01:19.803Z,36.90
2019-05-28T23:02:19.735Z,36.74
2019-05-28T23:03:19.782Z,36.58
2019-05-28T23:04:19.714Z,36.90
2019-05-28T23:05:19.776Z,37.06
2019-05-28T23:06:19.757Z,37.06
2019-05-28T23:07:19.720Z,36.90
2019-05-28T23:08:19.646Z,36.90
2019-05-28T23:09:19.778Z,37.06
2019-05-28T23:10:19.743Z,36.74
2019-05-28T23:11:19.738Z,37.06
2019-05-28T23:12:19.617Z,36.74
2019-05-28T23:13:19.620Z,36.90
2019-05-28T23:14:19.627Z,36.90
2019-05-28T23:15:19.619Z,36.74
2019-05-28T23:16:19.668Z,36.74
2019-05-28T23:17:19.672Z,36.90
2019-05-28T23:18:19.653Z,36.74
2019-05-28T23:19:19.654Z,36.74
2019-05-28T23:20:19.617Z,36.90
2019-05-28T23:21:19.552Z,36.90
2019-05-28T23:22:19.566Z,36.90
2019-05-28T23:23:19.626Z,36.74
2019-05-28T23:24:19.594Z,36.90
2019-05-28T23:25:19.562Z,37.06
2019-05-28T23:26:19.612Z,36.74
2019-05-28T23:27:19.591Z,37.06
2019-05-28T23:28:19.607Z,37.06
2019-05-28T23:29:19.487Z,36.74
2019-05-28T23:30:24.615Z,36.74
2019-05-28T23:31:20.553Z,36.74
2019-05-28T23:32:19.527Z,36.74
2019-05-28T23:33:19.545Z,36.74
2019-05-28T23:34:19.533Z,37.06
2019-05-28T23:35:19.580Z,36.58
2019-05-28T23:36:19.487Z,37.06
2019-05-28T23:37:19.505Z,36.58
2019-05-28T23:38:19.514Z,36.74
2019-05-28T23:39:19.533Z,36.90
2019-05-28T23:40:19.540Z,36.25
2019-05-28T23:41:19.499Z,36.90
2019-05-28T23:42:19.483Z,36.58
2019-05-28T23:43:19.415Z,36.58
2019-05-28T23:44:19.414Z,36.74
2019-05-28T23:45:19.483Z,36.25
2019-05-28T23:46:19.465Z,37.06
2019-05-28T23:47:19.502Z,36.58
2019-05-28T23:48:19.493Z,36.42
2019-05-28T23:49:19.452Z,36.90
2019-05-28T23:50:19.463Z,36.74
2019-05-28T23:51:19.509Z,36.74
2019-05-28T23:52:19.463Z,36.58
2019-05-28T23:53:19.463Z,36.74
2019-05-28T23:54:19.419Z,37.06
2019-05-28T23:55:19.352Z,36.25
2019-05-28T23:56:19.448Z,36.09
2019-05-28T23:57:19.418Z,37.06
2019-05-28T23:58:19.404Z,36.58
2019-05-28T23:59:19.461Z,36.90
